createdAt,value
2016-12-08T00:00:15.967Z,1023.11
2016-12-08T00:00:56.512Z,1023.05
2016-12-08T00:01:37.020Z,1023.07
2016-12-08T00:02:17.542Z,1023.09
2016-12-08T00:02:58.067Z,1023.08
2016-12-08T00:03:38.602Z,1023.09
2016-12-08T00:04:19.129Z,1023.1
2016-12-08T00:04:59.637Z,1023.13
2016-12-08T00:05:40.167Z,1023.1
2016-12-08T00:06:20.671Z,1023.09
2016-12-08T00:07:01.179Z,1023.13
2016-12-08T00:07:41.693Z,1023.12
2016-12-08T00:08:22.212Z,1023.11
2016-12-08T00:09:02.719Z,1023.07
2016-12-08T00:09:43.283Z,1023.06
2016-12-08T00:10:23.830Z,1023.06
2016-12-08T00:11:04.368Z,1023.01
2016-12-08T00:11:44.886Z,1023.04
2016-12-08T00:12:25.386Z,1022.99
2016-12-08T00:13:05.901Z,1022.99
2016-12-08T00:13:46.435Z,1022.99
2016-12-08T00:14:26.941Z,1022.98
2016-12-08T00:15:07.468Z,1023
2016-12-08T00:15:48.108Z,1023
2016-12-08T00:16:28.636Z,1022.98
2016-12-08T00:17:09.162Z,1023.05
2016-12-08T00:17:49.693Z,1023.03
2016-12-08T00:18:30.207Z,1023.01
2016-12-08T00:19:10.721Z,1023
2016-12-08T00:19:51.231Z,1023.04
2016-12-08T00:20:31.770Z,1023.02
2016-12-08T00:21:12.272Z,1023.04
2016-12-08T00:21:52.798Z,1023.02
2016-12-08T00:22:33.330Z,1023
2016-12-08T00:23:13.859Z,1023.05
2016-12-08T00:23:54.407Z,1023.04
2016-12-08T00:24:34.956Z,1023.03
2016-12-08T00:25:15.478Z,1023.06
2016-12-08T00:25:55.984Z,1023.01
2016-12-08T00:26:36.506Z,1023.05
2016-12-08T00:27:17.028Z,1023.07
2016-12-08T00:27:57.522Z,1023.03
2016-12-08T00:28:38.070Z,1023.05
2016-12-08T00:29:18.590Z,1023.04
2016-12-08T00:29:59.111Z,1023.04
2016-12-08T00:30:39.612Z,1023.06
2016-12-08T00:31:20.163Z,1023.1
2016-12-08T00:32:00.650Z,1023.05
2016-12-08T00:32:41.173Z,1023.11
2016-12-08T00:33:21.713Z,1023.02
2016-12-08T00:34:02.247Z,1023.05
2016-12-08T00:34:42.765Z,1023.05
2016-12-08T00:35:23.275Z,1022.99
2016-12-08T00:36:03.798Z,1022.99
2016-12-08T00:36:44.339Z,1022.97
2016-12-08T00:37:24.855Z,1022.99
2016-12-08T00:38:05.387Z,1022.96
2016-12-08T00:38:45.923Z,1022.91
2016-12-08T00:39:26.440Z,1022.91
2016-12-08T00:40:06.942Z,1022.9
2016-12-08T00:40:47.481Z,1022.87
2016-12-08T00:41:28.038Z,1022.84
2016-12-08T00:42:08.587Z,1022.92
2016-12-08T00:42:49.098Z,1022.93
2016-12-08T00:43:29.623Z,1022.91
2016-12-08T00:44:10.164Z,1022.94
2016-12-08T00:44:50.722Z,1022.94
2016-12-08T00:45:31.252Z,1022.91
2016-12-08T00:46:11.782Z,1022.93
2016-12-08T00:46:52.315Z,1022.93
2016-12-08T00:47:32.869Z,1022.92
2016-12-08T00:48:13.421Z,1022.91
2016-12-08T00:48:53.984Z,1022.9
2016-12-08T00:49:34.515Z,1022.88
2016-12-08T00:50:15.027Z,1022.87
2016-12-08T00:50:55.551Z,1022.85
2016-12-08T00:51:36.074Z,1022.85
2016-12-08T00:52:16.588Z,1022.82
2016-12-08T00:52:57.101Z,1022.8
2016-12-08T00:53:37.661Z,1022.79
2016-12-08T00:54:18.199Z,1022.77
2016-12-08T00:54:58.693Z,1022.71
2016-12-08T00:55:39.232Z,1022.73
2016-12-08T00:56:19.748Z,1022.72
2016-12-08T00:57:00.273Z,1022.73
2016-12-08T00:57:40.795Z,1022.75
2016-12-08T00:58:21.311Z,1022.77
2016-12-08T00:59:01.821Z,1022.83
2016-12-08T00:59:42.324Z,1022.83
2016-12-08T01:00:22.857Z,1022.86
2016-12-08T01:01:03.381Z,1022.91
2016-12-08T01:01:43.894Z,1022.85
2016-12-08T01:02:24.410Z,1022.88
2016-12-08T01:03:04.928Z,1022.95
2016-12-08T01:03:45.449Z,1022.96
2016-12-08T01:04:25.972Z,1022.96
2016-12-08T01:05:06.494Z,1022.99
2016-12-08T01:05:47.044Z,1022.97
2016-12-08T01:06:27.569Z,1022.99
2016-12-08T01:07:08.096Z,1022.98
2016-12-08T01:07:48.612Z,1022.99
2016-12-08T01:08:29.145Z,1022.96
2016-12-08T01:09:09.704Z,1022.95
2016-12-08T01:09:50.194Z,1022.98
2016-12-08T01:10:30.716Z,1022.94
2016-12-08T01:11:11.259Z,1022.94
2016-12-08T01:11:51.773Z,1022.92
2016-12-08T01:12:32.300Z,1022.98
2016-12-08T01:13:12.801Z,1022.97
2016-12-08T01:13:53.334Z,1022.96
2016-12-08T01:14:33.876Z,1022.99
2016-12-08T01:15:14.416Z,1022.98
2016-12-08T01:15:54.948Z,1022.97
2016-12-08T01:16:35.454Z,1022.96
2016-12-08T01:17:16.005Z,1022.97
2016-12-08T01:17:56.546Z,1022.95
2016-12-08T01:18:37.084Z,1023
2016-12-08T01:19:17.609Z,1023.04
2016-12-08T01:19:58.130Z,1023.02
2016-12-08T01:20:38.676Z,1023.01
2016-12-08T01:21:19.233Z,1023
2016-12-08T01:21:59.769Z,1023.02
2016-12-08T01:22:40.310Z,1022.99
2016-12-08T01:23:20.836Z,1022.97
2016-12-08T01:24:01.373Z,1022.98
2016-12-08T01:24:41.908Z,1022.97
2016-12-08T01:25:22.447Z,1023.01
2016-12-08T01:26:02.990Z,1022.99
2016-12-08T01:26:43.523Z,1023.01
2016-12-08T01:27:24.059Z,1022.98
2016-12-08T01:28:04.575Z,1022.96
2016-12-08T01:28:45.103Z,1022.99
2016-12-08T01:29:25.622Z,1023.02
2016-12-08T01:30:06.126Z,1022.97
2016-12-08T01:30:46.649Z,1022.97
2016-12-08T01:31:27.191Z,1022.99
2016-12-08T01:32:07.711Z,1022.98
2016-12-08T01:32:48.224Z,1022.99
2016-12-08T01:33:28.744Z,1022.97
2016-12-08T01:34:09.280Z,1022.97
2016-12-08T01:34:49.811Z,1022.97
2016-12-08T01:35:30.339Z,1023
2016-12-08T01:36:10.842Z,1023
2016-12-08T01:36:51.385Z,1022.96
2016-12-08T01:37:31.914Z,1023.02
2016-12-08T01:38:12.435Z,1022.98
2016-12-08T01:38:52.946Z,1023.02
2016-12-08T01:39:33.465Z,1023.04
2016-12-08T01:40:13.989Z,1023.04
2016-12-08T01:40:54.511Z,1023.06
2016-12-08T01:41:35.042Z,1023.07
2016-12-08T01:42:15.561Z,1023.05
2016-12-08T01:42:56.093Z,1023.08
2016-12-08T01:43:36.588Z,1023.04
2016-12-08T01:44:17.110Z,1023.05
2016-12-08T01:44:57.638Z,1023.02
2016-12-08T01:45:38.167Z,1023.02
2016-12-08T01:46:18.694Z,1023.03
2016-12-08T01:46:59.251Z,1023.06
2016-12-08T01:47:39.780Z,1023.02
2016-12-08T01:48:20.308Z,1023.05
2016-12-08T01:49:00.828Z,1023.05
2016-12-08T01:49:41.358Z,1023.04
2016-12-08T01:50:21.877Z,1023
2016-12-08T01:51:02.397Z,1023
2016-12-08T01:51:42.948Z,1023
2016-12-08T01:52:23.491Z,1023
2016-12-08T01:53:04.015Z,1022.98
2016-12-08T01:53:44.525Z,1023.01
2016-12-08T01:54:25.051Z,1023.05
2016-12-08T01:55:05.596Z,1022.99
2016-12-08T01:55:46.143Z,1022.97
2016-12-08T01:56:26.644Z,1023.02
2016-12-08T01:57:07.195Z,1022.96
2016-12-08T01:57:47.720Z,1023.01
2016-12-08T01:58:28.245Z,1022.98
2016-12-08T01:59:08.745Z,1023.01
2016-12-08T01:59:49.310Z,1022.95
2016-12-08T02:00:29.826Z,1023.01
2016-12-08T02:01:10.366Z,1023.03
2016-12-08T02:01:50.910Z,1023.09
2016-12-08T02:02:31.447Z,1023.11
2016-12-08T02:03:11.996Z,1023.14
2016-12-08T02:03:52.512Z,1023.17
2016-12-08T02:04:33.036Z,1023.14
2016-12-08T02:05:13.559Z,1023.17
2016-12-08T02:05:54.101Z,1023.21
2016-12-08T02:06:34.662Z,1023.19
2016-12-08T02:07:15.184Z,1023.19
2016-12-08T02:07:55.687Z,1023.21
2016-12-08T02:08:36.214Z,1023.19
2016-12-08T02:09:16.740Z,1023.21
2016-12-08T02:09:57.263Z,1023.2
2016-12-08T02:10:37.776Z,1023.2
2016-12-08T02:11:18.306Z,1023.25
2016-12-08T02:11:58.825Z,1023.23
2016-12-08T02:12:39.353Z,1023.26
2016-12-08T02:13:19.875Z,1023.23
2016-12-08T02:14:00.409Z,1023.24
2016-12-08T02:14:40.934Z,1023.21
2016-12-08T02:15:21.461Z,1023.26
2016-12-08T02:16:01.994Z,1023.2
2016-12-08T02:16:42.514Z,1023.2
2016-12-08T02:17:23.018Z,1023.19
2016-12-08T02:18:03.549Z,1023.17
2016-12-08T02:18:44.063Z,1023.17
2016-12-08T02:19:24.594Z,1023.21
2016-12-08T02:20:05.146Z,1023.19
2016-12-08T02:20:45.656Z,1023.19
2016-12-08T02:21:26.181Z,1023.18
2016-12-08T02:22:06.715Z,1023.17
2016-12-08T02:22:47.264Z,1023.16
2016-12-08T02:23:27.790Z,1023.12
2016-12-08T02:24:08.304Z,1023.13
2016-12-08T02:24:48.838Z,1023.08
2016-12-08T02:25:29.384Z,1023.1
2016-12-08T02:26:09.907Z,1023.05
2016-12-08T02:26:50.448Z,1023.11
2016-12-08T02:27:30.966Z,1023.09
2016-12-08T02:28:11.485Z,1023.08
2016-12-08T02:28:52.008Z,1023.07
2016-12-08T02:29:32.541Z,1023.03
2016-12-08T02:30:13.100Z,1023.02
2016-12-08T02:30:53.652Z,1023.02
2016-12-08T02:31:34.154Z,1023.03
2016-12-08T02:32:14.683Z,1023.04
2016-12-08T02:32:55.205Z,1023.05
2016-12-08T02:33:35.743Z,1023.05
2016-12-08T02:34:16.277Z,1023.03
2016-12-08T02:34:56.815Z,1023
2016-12-08T02:35:37.356Z,1022.99
2016-12-08T02:36:17.879Z,1022.97
2016-12-08T02:36:58.405Z,1022.98
2016-12-08T02:37:38.943Z,1022.97
2016-12-08T02:38:19.469Z,1023.06
2016-12-08T02:38:59.991Z,1023
2016-12-08T02:39:40.525Z,1023.06
2016-12-08T02:40:21.056Z,1023.02
2016-12-08T02:41:01.590Z,1023.03
2016-12-08T02:41:42.120Z,1023.04
2016-12-08T02:42:22.636Z,1022.97
2016-12-08T02:43:03.169Z,1023.04
2016-12-08T02:43:43.701Z,1023.06
2016-12-08T02:44:24.229Z,1022.98
2016-12-08T02:45:04.767Z,1023.01
2016-12-08T02:45:45.296Z,1023.02
2016-12-08T02:46:25.816Z,1023.04
2016-12-08T02:47:06.352Z,1022.99
2016-12-08T02:47:46.888Z,1023.04
2016-12-08T02:48:27.460Z,1023.08
2016-12-08T02:49:08.009Z,1023.06
2016-12-08T02:49:48.530Z,1023.04
2016-12-08T02:50:29.058Z,1023.06
2016-12-08T02:51:09.596Z,1023.03
2016-12-08T02:51:50.114Z,1023.02
2016-12-08T02:52:30.647Z,1023.06
2016-12-08T02:53:11.163Z,1023.06
2016-12-08T02:53:51.680Z,1023.03
2016-12-08T02:54:32.213Z,1022.99
2016-12-08T02:55:12.748Z,1023.02
2016-12-08T02:55:53.258Z,1022.98
2016-12-08T02:56:33.791Z,1023.02
2016-12-08T02:57:14.345Z,1023.01
2016-12-08T02:57:54.857Z,1022.97
2016-12-08T02:58:35.368Z,1022.97
2016-12-08T02:59:15.911Z,1022.96
2016-12-08T02:59:56.441Z,1022.96
2016-12-08T03:00:36.957Z,1022.9
2016-12-08T03:01:17.515Z,1022.91
2016-12-08T03:01:58.051Z,1022.9
2016-12-08T03:02:38.585Z,1022.88
2016-12-08T03:03:19.092Z,1022.84
2016-12-08T03:03:59.612Z,1022.87
2016-12-08T03:04:40.118Z,1022.88
2016-12-08T03:05:20.678Z,1022.89
2016-12-08T03:06:01.196Z,1022.91
2016-12-08T03:06:41.738Z,1022.93
2016-12-08T03:07:22.265Z,1022.87
2016-12-08T03:08:02.785Z,1022.91
2016-12-08T03:08:43.289Z,1022.93
2016-12-08T03:09:23.814Z,1022.97
2016-12-08T03:10:04.338Z,1022.99
2016-12-08T03:10:44.867Z,1022.99
2016-12-08T03:11:25.422Z,1023
2016-12-08T03:12:05.928Z,1022.97
2016-12-08T03:12:46.455Z,1022.99
2016-12-08T03:13:26.984Z,1023.02
2016-12-08T03:14:07.506Z,1022.99
2016-12-08T03:14:48.038Z,1023
2016-12-08T03:15:28.586Z,1022.98
2016-12-08T03:16:09.130Z,1022.93
2016-12-08T03:16:49.682Z,1022.94
2016-12-08T03:17:30.247Z,1022.91
2016-12-08T03:18:10.781Z,1022.91
2016-12-08T03:18:51.308Z,1022.91
2016-12-08T03:19:31.835Z,1022.95
2016-12-08T03:20:12.380Z,1022.92
2016-12-08T03:20:52.892Z,1022.93
2016-12-08T03:21:33.417Z,1022.93
2016-12-08T03:22:13.946Z,1022.89
2016-12-08T03:22:54.481Z,1022.85
2016-12-08T03:23:35.007Z,1022.84
2016-12-08T03:24:15.556Z,1022.88
2016-12-08T03:24:56.100Z,1022.94
2016-12-08T03:25:36.634Z,1022.91
2016-12-08T03:26:17.167Z,1022.97
2016-12-08T03:26:57.687Z,1022.94
2016-12-08T03:27:38.220Z,1022.97
2016-12-08T03:28:18.774Z,1023.01
2016-12-08T03:28:59.304Z,1023.03
2016-12-08T03:29:39.836Z,1023.07
2016-12-08T03:30:20.367Z,1023.05
2016-12-08T03:31:00.899Z,1023.04
2016-12-08T03:31:41.410Z,1022.99
2016-12-08T03:32:21.959Z,1022.97
2016-12-08T03:33:02.492Z,1022.95
2016-12-08T03:33:43.036Z,1022.96
2016-12-08T03:34:23.555Z,1022.95
2016-12-08T03:35:04.073Z,1022.92
2016-12-08T03:35:44.588Z,1022.9
2016-12-08T03:36:25.139Z,1022.91
2016-12-08T03:37:05.629Z,1022.85
2016-12-08T03:37:46.158Z,1022.86
2016-12-08T03:38:26.656Z,1022.84
2016-12-08T03:39:07.174Z,1022.84
2016-12-08T03:39:47.712Z,1022.87
2016-12-08T03:40:28.222Z,1022.82
2016-12-08T03:41:08.736Z,1022.87
2016-12-08T03:41:49.259Z,1022.82
2016-12-08T03:42:29.792Z,1022.86
2016-12-08T03:43:10.312Z,1022.87
2016-12-08T03:43:50.827Z,1022.83
2016-12-08T03:44:31.359Z,1022.89
2016-12-08T03:45:11.906Z,1022.83
2016-12-08T03:45:52.441Z,1022.89
2016-12-08T03:46:32.988Z,1022.89
2016-12-08T03:47:13.530Z,1022.85
2016-12-08T03:47:54.071Z,1022.87
2016-12-08T03:48:34.603Z,1022.81
2016-12-08T03:49:15.118Z,1022.81
2016-12-08T03:49:55.619Z,1022.83
2016-12-08T03:50:36.144Z,1022.82
2016-12-08T03:51:16.670Z,1022.78
2016-12-08T03:51:57.184Z,1022.71
2016-12-08T03:52:37.747Z,1022.64
2016-12-08T03:53:18.287Z,1022.67
2016-12-08T03:53:58.847Z,1022.64
2016-12-08T03:54:39.385Z,1022.68
2016-12-08T03:55:19.917Z,1022.62
2016-12-08T03:56:00.446Z,1022.6
2016-12-08T03:56:40.964Z,1022.64
2016-12-08T03:57:21.502Z,1022.63
2016-12-08T03:58:02.035Z,1022.69
2016-12-08T03:58:42.568Z,1022.73
2016-12-08T03:59:23.077Z,1022.72
2016-12-08T04:00:03.602Z,1022.77
2016-12-08T04:00:44.144Z,1022.75
2016-12-08T04:01:24.684Z,1022.76
2016-12-08T04:02:05.210Z,1022.74
2016-12-08T04:02:45.729Z,1022.77
2016-12-08T04:03:26.273Z,1022.76
2016-12-08T04:04:06.797Z,1022.76
2016-12-08T04:04:47.335Z,1022.72
2016-12-08T04:05:27.849Z,1022.7
2016-12-08T04:06:08.404Z,1022.72
2016-12-08T04:06:48.915Z,1022.73
2016-12-08T04:07:29.464Z,1022.73
2016-12-08T04:08:10.012Z,1022.77
2016-12-08T04:08:50.556Z,1022.76
2016-12-08T04:09:31.088Z,1022.78
2016-12-08T04:10:11.637Z,1022.86
2016-12-08T04:10:52.169Z,1022.84
2016-12-08T04:11:32.682Z,1022.9
2016-12-08T04:12:13.220Z,1022.87
2016-12-08T04:12:53.767Z,1022.87
2016-12-08T04:13:34.315Z,1022.88
2016-12-08T04:14:14.868Z,1022.93
2016-12-08T04:14:55.425Z,1022.89
2016-12-08T04:15:35.974Z,1022.82
2016-12-08T04:16:16.538Z,1022.85
2016-12-08T04:16:57.105Z,1022.84
2016-12-08T04:17:37.631Z,1022.8
2016-12-08T04:18:18.157Z,1022.79
2016-12-08T04:18:58.720Z,1022.83
2016-12-08T04:19:39.294Z,1022.76
2016-12-08T04:20:19.823Z,1022.8
2016-12-08T04:21:00.375Z,1022.82
2016-12-08T04:21:40.902Z,1022.84
2016-12-08T04:22:21.453Z,1022.79
2016-12-08T04:23:01.994Z,1022.8
2016-12-08T04:23:42.516Z,1022.79
2016-12-08T04:24:23.063Z,1022.8
2016-12-08T04:25:03.576Z,1022.76
2016-12-08T04:25:44.134Z,1022.78
2016-12-08T04:26:24.685Z,1022.75
2016-12-08T04:27:05.226Z,1022.71
2016-12-08T04:27:45.738Z,1022.7
2016-12-08T04:28:26.253Z,1022.66
2016-12-08T04:29:06.782Z,1022.65
2016-12-08T04:29:47.324Z,1022.64
2016-12-08T04:30:27.873Z,1022.56
2016-12-08T04:31:08.418Z,1022.61
2016-12-08T04:31:48.943Z,1022.53
2016-12-08T04:32:29.500Z,1022.55
2016-12-08T04:33:10.029Z,1022.52
2016-12-08T04:33:50.569Z,1022.49
2016-12-08T04:34:31.102Z,1022.51
2016-12-08T04:35:11.626Z,1022.5
2016-12-08T04:35:52.183Z,1022.49
2016-12-08T04:36:32.738Z,1022.48
2016-12-08T04:37:13.277Z,1022.47
2016-12-08T04:37:53.799Z,1022.45
2016-12-08T04:38:34.314Z,1022.43
2016-12-08T04:39:14.850Z,1022.42
2016-12-08T04:39:55.384Z,1022.4
2016-12-08T04:40:35.922Z,1022.43
2016-12-08T04:41:16.442Z,1022.44
2016-12-08T04:41:56.956Z,1022.45
2016-12-08T04:42:37.499Z,1022.46
2016-12-08T04:43:18.050Z,1022.5
2016-12-08T04:43:58.586Z,1022.44
2016-12-08T04:44:39.123Z,1022.52
2016-12-08T04:45:19.679Z,1022.51
2016-12-08T04:46:00.193Z,1022.52
2016-12-08T04:46:40.725Z,1022.51
2016-12-08T04:47:21.270Z,1022.53
2016-12-08T04:48:01.823Z,1022.58
2016-12-08T04:48:42.369Z,1022.57
2016-12-08T04:49:22.907Z,1022.57
2016-12-08T04:50:03.460Z,1022.61
2016-12-08T04:50:44.008Z,1022.58
2016-12-08T04:51:24.494Z,1022.6
2016-12-08T04:52:05.016Z,1022.64
2016-12-08T04:52:45.527Z,1022.62
2016-12-08T04:53:26.057Z,1022.62
2016-12-08T04:54:06.571Z,1022.61
2016-12-08T04:54:47.110Z,1022.68
2016-12-08T04:55:27.650Z,1022.66
2016-12-08T04:56:08.188Z,1022.57
2016-12-08T04:56:48.729Z,1022.69
2016-12-08T04:57:29.237Z,1022.66
2016-12-08T04:58:09.762Z,1022.68
2016-12-08T04:58:50.285Z,1022.7
2016-12-08T04:59:30.817Z,1022.72
2016-12-08T05:00:11.354Z,1022.72
2016-12-08T05:00:51.860Z,1022.77
2016-12-08T05:01:32.424Z,1022.74
2016-12-08T05:02:12.932Z,1022.69
2016-12-08T05:02:53.480Z,1022.72
2016-12-08T05:03:34.023Z,1022.79
2016-12-08T05:04:14.519Z,1022.72
2016-12-08T05:04:55.043Z,1022.74
2016-12-08T05:05:35.570Z,1022.74
2016-12-08T05:06:16.070Z,1022.71
2016-12-08T05:06:56.570Z,1022.68
2016-12-08T05:07:37.076Z,1022.63
2016-12-08T05:08:17.594Z,1022.62
2016-12-08T05:08:58.153Z,1022.63
2016-12-08T05:09:38.663Z,1022.62
2016-12-08T05:10:19.167Z,1022.6
2016-12-08T05:10:59.689Z,1022.63
2016-12-08T05:11:40.221Z,1022.62
2016-12-08T05:12:20.742Z,1022.68
2016-12-08T05:13:01.251Z,1022.67
2016-12-08T05:13:41.761Z,1022.61
2016-12-08T05:14:22.265Z,1022.65
2016-12-08T05:15:02.785Z,1022.59
2016-12-08T05:15:43.313Z,1022.56
2016-12-08T05:16:23.830Z,1022.53
2016-12-08T05:17:04.365Z,1022.56
2016-12-08T05:17:44.885Z,1022.55
2016-12-08T05:18:25.419Z,1022.54
2016-12-08T05:19:05.949Z,1022.6
2016-12-08T05:19:46.480Z,1022.63
2016-12-08T05:20:27.031Z,1022.6
2016-12-08T05:21:07.543Z,1022.63
2016-12-08T05:21:48.069Z,1022.62
2016-12-08T05:22:28.581Z,1022.61
2016-12-08T05:23:09.102Z,1022.63
2016-12-08T05:23:49.610Z,1022.6
2016-12-08T05:24:30.125Z,1022.63
2016-12-08T05:25:10.641Z,1022.59
2016-12-08T05:25:51.166Z,1022.62
2016-12-08T05:26:31.672Z,1022.63
2016-12-08T05:27:12.210Z,1022.61
2016-12-08T05:27:52.718Z,1022.58
2016-12-08T05:28:33.222Z,1022.66
2016-12-08T05:29:13.731Z,1022.66
2016-12-08T05:29:54.244Z,1022.69
2016-12-08T05:30:34.756Z,1022.68
2016-12-08T05:31:15.263Z,1022.69
2016-12-08T05:31:55.770Z,1022.69
2016-12-08T05:32:36.277Z,1022.71
2016-12-08T05:33:16.801Z,1022.72
2016-12-08T05:33:57.302Z,1022.75
2016-12-08T05:34:37.818Z,1022.75
2016-12-08T05:35:18.337Z,1022.73
2016-12-08T05:35:58.875Z,1022.72
2016-12-08T05:36:39.377Z,1022.68
2016-12-08T05:37:19.918Z,1022.73
2016-12-08T05:38:00.432Z,1022.72
2016-12-08T05:38:40.939Z,1022.66
2016-12-08T05:39:21.466Z,1022.66
2016-12-08T05:40:02.000Z,1022.71
2016-12-08T05:40:42.521Z,1022.64
2016-12-08T05:41:23.055Z,1022.67
2016-12-08T05:42:03.599Z,1022.73
2016-12-08T05:42:44.112Z,1022.75
2016-12-08T05:43:24.639Z,1022.7
2016-12-08T05:44:05.178Z,1022.73
2016-12-08T05:44:45.712Z,1022.7
2016-12-08T05:45:26.289Z,1022.67
2016-12-08T05:46:06.810Z,1022.69
2016-12-08T05:46:47.348Z,1022.72
2016-12-08T05:47:27.873Z,1022.71
2016-12-08T05:48:08.423Z,1022.71
2016-12-08T05:48:48.962Z,1022.67
2016-12-08T05:49:29.519Z,1022.69
2016-12-08T05:50:10.040Z,1022.71
2016-12-08T05:50:50.580Z,1022.66
2016-12-08T05:51:31.072Z,1022.65
2016-12-08T05:52:11.585Z,1022.71
2016-12-08T05:52:52.110Z,1022.69
2016-12-08T05:53:32.629Z,1022.69
2016-12-08T05:54:13.144Z,1022.71
2016-12-08T05:54:53.662Z,1022.7
2016-12-08T05:55:34.192Z,1022.69
2016-12-08T05:56:14.724Z,1022.69
2016-12-08T05:56:55.243Z,1022.61
2016-12-08T05:57:35.755Z,1022.66
2016-12-08T05:58:16.288Z,1022.63
2016-12-08T05:58:56.832Z,1022.66
2016-12-08T05:59:37.371Z,1022.71
2016-12-08T06:00:17.912Z,1022.65
2016-12-08T06:00:58.450Z,1022.67
2016-12-08T06:01:39.031Z,1022.63
2016-12-08T06:02:19.576Z,1022.65
2016-12-08T06:03:00.131Z,1022.67
2016-12-08T06:03:40.669Z,1022.66
2016-12-08T06:04:21.194Z,1022.65
2016-12-08T06:05:01.714Z,1022.66
2016-12-08T06:05:42.254Z,1022.67
2016-12-08T06:06:22.785Z,1022.66
2016-12-08T06:07:03.318Z,1022.64
2016-12-08T06:07:43.835Z,1022.64
2016-12-08T06:08:24.369Z,1022.64
2016-12-08T06:09:04.945Z,1022.63
2016-12-08T06:09:45.494Z,1022.62
2016-12-08T06:10:26.012Z,1022.62
2016-12-08T06:11:06.599Z,1022.64
2016-12-08T06:12:02.149Z,1022.67
2016-12-08T06:12:42.792Z,1022.66
2016-12-08T06:13:23.307Z,1022.68
2016-12-08T06:14:03.822Z,1022.62
2016-12-08T06:14:44.347Z,1022.67
2016-12-08T06:15:24.882Z,1022.64
2016-12-08T06:16:05.439Z,1022.67
2016-12-08T06:16:45.958Z,1022.67
2016-12-08T06:17:26.496Z,1022.67
2016-12-08T06:18:07.051Z,1022.7
2016-12-08T06:18:47.681Z,1022.69
2016-12-08T06:19:28.141Z,1022.73
2016-12-08T06:20:08.655Z,1022.71
2016-12-08T06:20:49.191Z,1022.76
2016-12-08T06:21:29.712Z,1022.7
2016-12-08T06:22:10.228Z,1022.75
2016-12-08T06:22:50.752Z,1022.73
2016-12-08T06:23:31.283Z,1022.78
2016-12-08T06:24:11.813Z,1022.78
2016-12-08T06:24:52.348Z,1022.75
2016-12-08T06:25:32.863Z,1022.78
2016-12-08T06:26:13.372Z,1022.78
2016-12-08T06:26:53.894Z,1022.78
2016-12-08T06:27:34.461Z,1022.74
2016-12-08T06:28:14.985Z,1022.8
2016-12-08T06:28:55.504Z,1022.85
2016-12-08T06:29:36.098Z,1022.8
2016-12-08T06:30:16.711Z,1022.86
2016-12-08T06:30:57.279Z,1022.79
2016-12-08T06:31:37.809Z,1022.78
2016-12-08T06:32:18.342Z,1022.8
2016-12-08T06:32:58.863Z,1022.85
2016-12-08T06:33:39.437Z,1022.8
2016-12-08T06:34:20.036Z,1022.77
2016-12-08T06:35:01.229Z,1022.83
2016-12-08T06:35:41.804Z,1022.79
2016-12-08T06:36:23.111Z,1022.84
2016-12-08T06:37:03.640Z,1022.84
2016-12-08T06:37:44.159Z,1022.83
2016-12-08T06:38:24.678Z,1022.81
2016-12-08T06:39:05.248Z,1022.82
2016-12-08T06:39:45.776Z,1022.81
2016-12-08T06:40:26.297Z,1022.79
2016-12-08T06:41:06.831Z,1022.82
2016-12-08T06:41:47.366Z,1022.83
2016-12-08T06:42:27.913Z,1022.87
2016-12-08T06:43:08.461Z,1022.82
2016-12-08T06:43:48.988Z,1022.79
2016-12-08T06:44:29.517Z,1022.85
2016-12-08T06:45:10.064Z,1022.82
2016-12-08T06:45:50.593Z,1022.85
2016-12-08T06:46:31.132Z,1022.86
2016-12-08T06:47:11.670Z,1022.91
2016-12-08T06:47:52.217Z,1022.89
2016-12-08T06:48:32.751Z,1022.92
2016-12-08T06:49:13.287Z,1022.87
2016-12-08T06:49:53.812Z,1022.92
2016-12-08T06:50:34.360Z,1022.87
2016-12-08T06:51:14.885Z,1022.93
2016-12-08T06:51:55.425Z,1022.88
2016-12-08T06:52:35.976Z,1022.92
2016-12-08T06:53:16.519Z,1022.92
2016-12-08T06:53:57.056Z,1022.86
2016-12-08T06:54:37.583Z,1022.9
2016-12-08T06:55:18.118Z,1022.92
2016-12-08T06:55:58.646Z,1022.92
2016-12-08T06:56:39.174Z,1022.88
2016-12-08T06:57:19.695Z,1022.88
2016-12-08T06:58:00.215Z,1022.91
2016-12-08T06:58:40.738Z,1022.9
2016-12-08T06:59:21.277Z,1022.89
2016-12-08T07:00:01.839Z,1022.89
2016-12-08T07:00:42.354Z,1022.87
2016-12-08T07:01:22.902Z,1022.9
2016-12-08T07:02:03.423Z,1022.9
2016-12-08T07:02:43.941Z,1022.91
2016-12-08T07:03:24.473Z,1022.86
2016-12-08T07:04:05.028Z,1022.8
2016-12-08T07:04:45.523Z,1022.79
2016-12-08T07:05:26.062Z,1022.84
2016-12-08T07:06:06.588Z,1022.88
2016-12-08T07:06:47.129Z,1022.84
2016-12-08T07:07:27.655Z,1022.92
2016-12-08T07:08:08.182Z,1022.9
2016-12-08T07:08:48.722Z,1022.96
2016-12-08T07:09:29.270Z,1022.88
2016-12-08T07:10:09.794Z,1022.96
2016-12-08T07:10:50.323Z,1022.91
2016-12-08T07:11:30.845Z,1022.9
2016-12-08T07:12:11.386Z,1022.88
2016-12-08T07:12:52.000Z,1022.86
2016-12-08T07:13:32.527Z,1022.9
2016-12-08T07:14:13.066Z,1022.87
2016-12-08T07:14:53.590Z,1022.96
2016-12-08T07:15:34.112Z,1022.95
2016-12-08T07:16:14.665Z,1022.95
2016-12-08T07:16:55.183Z,1022.97
2016-12-08T07:17:35.694Z,1022.97
2016-12-08T07:18:16.236Z,1022.96
2016-12-08T07:18:56.784Z,1023
2016-12-08T07:19:37.327Z,1022.96
2016-12-08T07:20:17.868Z,1022.98
2016-12-08T07:20:58.403Z,1023.04
2016-12-08T07:21:38.934Z,1023.03
2016-12-08T07:22:19.441Z,1023.02
2016-12-08T07:22:59.978Z,1022.98
2016-12-08T07:23:40.486Z,1022.97
2016-12-08T07:24:21.025Z,1023.03
2016-12-08T07:25:01.544Z,1023.01
2016-12-08T07:25:42.097Z,1022.99
2016-12-08T07:26:22.626Z,1023
2016-12-08T07:27:03.161Z,1023.03
2016-12-08T07:27:43.681Z,1023.03
2016-12-08T07:28:24.223Z,1023.02
2016-12-08T07:29:04.734Z,1023.02
2016-12-08T07:29:45.252Z,1023.03
2016-12-08T07:30:25.788Z,1023.06
2016-12-08T07:31:06.310Z,1023.05
2016-12-08T07:31:46.849Z,1023
2016-12-08T07:32:27.348Z,1023.01
2016-12-08T07:33:07.882Z,1023
2016-12-08T07:33:48.398Z,1022.97
2016-12-08T07:34:28.916Z,1022.94
2016-12-08T07:35:09.425Z,1022.89
2016-12-08T07:35:49.950Z,1022.89
2016-12-08T07:36:30.457Z,1022.88
2016-12-08T07:37:11.006Z,1022.89
2016-12-08T07:37:51.550Z,1022.87
2016-12-08T07:38:32.099Z,1022.89
2016-12-08T07:39:12.635Z,1022.84
2016-12-08T07:39:53.171Z,1022.92
2016-12-08T07:40:33.685Z,1022.97
2016-12-08T07:41:14.255Z,1022.94
2016-12-08T07:41:54.799Z,1022.98
2016-12-08T07:42:35.323Z,1023.01
2016-12-08T07:43:15.873Z,1023.02
2016-12-08T07:43:56.394Z,1023.04
2016-12-08T07:44:36.923Z,1023.04
2016-12-08T07:45:17.439Z,1023.06
2016-12-08T07:45:57.983Z,1023.05
2016-12-08T07:46:38.507Z,1023.04
2016-12-08T07:47:19.062Z,1023.09
2016-12-08T07:47:59.676Z,1023.11
2016-12-08T07:48:40.242Z,1023.08
2016-12-08T07:49:20.756Z,1023.03
2016-12-08T07:50:01.310Z,1023.01
2016-12-08T07:50:41.797Z,1023.02
2016-12-08T07:51:22.329Z,1022.95
2016-12-08T07:52:02.856Z,1022.96
2016-12-08T07:52:43.368Z,1023.01
2016-12-08T07:53:23.897Z,1022.89
2016-12-08T07:54:04.423Z,1022.96
2016-12-08T07:54:44.980Z,1022.95
2016-12-08T07:55:25.530Z,1022.94
2016-12-08T07:56:06.083Z,1022.94
2016-12-08T07:56:46.632Z,1023
2016-12-08T07:57:27.393Z,1022.95
2016-12-08T07:58:08.011Z,1023
2016-12-08T07:58:48.528Z,1022.99
2016-12-08T07:59:29.110Z,1022.98
2016-12-08T08:00:09.636Z,1022.98
2016-12-08T08:00:50.181Z,1022.95
2016-12-08T08:01:30.726Z,1022.95
2016-12-08T08:02:11.241Z,1022.94
2016-12-08T08:02:51.771Z,1022.94
2016-12-08T08:03:32.283Z,1022.94
2016-12-08T08:04:12.810Z,1022.93
2016-12-08T08:04:53.381Z,1022.89
2016-12-08T08:05:33.905Z,1022.93
2016-12-08T08:06:14.443Z,1022.87
2016-12-08T08:06:54.994Z,1022.88
2016-12-08T08:07:35.506Z,1022.9
2016-12-08T08:08:16.069Z,1022.89
2016-12-08T08:08:56.601Z,1022.86
2016-12-08T08:09:37.149Z,1022.87
2016-12-08T08:10:17.695Z,1022.86
2016-12-08T08:10:58.232Z,1022.87
2016-12-08T08:11:38.761Z,1022.82
2016-12-08T08:12:19.311Z,1022.86
2016-12-08T08:12:59.888Z,1022.87